createdAt,value
2024-04-11T00:00:56.333Z,21.62
2024-04-11T00:01:58.322Z,21.56
2024-04-11T00:03:00.474Z,21.62
2024-04-11T00:04:02.979Z,21.61
2024-04-11T00:05:05.522Z,21.61
2024-04-11T00:06:08.976Z,21.59
2024-04-11T00:07:10.823Z,21.61
2024-04-11T00:08:12.824Z,21.60
2024-04-11T00:09:14.726Z,21.59
2024-04-11T00:10:16.703Z,21.59
2024-04-11T00:11:20.017Z,21.59
2024-04-11T00:12:22.322Z,21.59
2024-04-11T00:13:24.206Z,21.58
2024-04-11T00:14:26.105Z,21.58
2024-04-11T00:15:28.202Z,21.57
2024-04-11T00:16:30.322Z,21.53
2024-04-11T00:17:32.519Z,21.52
2024-04-11T00:18:34.655Z,21.55
2024-04-11T00:19:39.135Z,21.57
2024-04-11T00:20:41.188Z,21.56
2024-04-11T00:21:43.054Z,21.56
2024-04-11T00:22:47.995Z,21.55
2024-04-11T00:23:49.917Z,21.56
2024-04-11T00:24:52.478Z,21.55
2024-04-11T00:25:58.934Z,21.54
2024-04-11T00:27:01.243Z,21.56
2024-04-11T00:28:03.180Z,21.49
2024-04-11T00:29:11.454Z,21.50
2024-04-11T00:30:13.442Z,21.50
2024-04-11T00:31:16.356Z,21.54
2024-04-11T00:32:18.223Z,21.48
2024-04-11T00:33:20.760Z,21.53
2024-04-11T00:34:32.926Z,21.52
2024-04-11T00:35:36.557Z,21.55
2024-04-11T00:36:41.588Z,21.54
2024-04-11T00:37:44.445Z,21.47
2024-04-11T00:38:46.381Z,21.47
2024-04-11T00:39:48.314Z,21.52
2024-04-11T00:40:57.692Z,21.50
2024-04-11T00:41:59.643Z,21.52
2024-04-11T00:43:01.541Z,21.52
2024-04-11T00:44:04.009Z,21.50
2024-04-11T00:45:08.479Z,21.46
2024-04-11T00:46:11.309Z,21.47
2024-04-11T00:47:13.371Z,21.45
2024-04-11T00:48:19.608Z,21.49
2024-04-11T00:49:22.635Z,21.49
2024-04-11T00:50:24.573Z,21.47
2024-04-11T00:51:26.516Z,21.49
2024-04-11T00:52:29.865Z,21.48
2024-04-11T00:53:31.873Z,21.33
2024-04-11T00:54:33.999Z,21.41
2024-04-11T00:55:39.264Z,21.46
2024-04-11T00:56:41.947Z,21.48
2024-04-11T00:57:44.413Z,21.43
2024-04-11T00:58:46.282Z,21.49
2024-04-11T00:59:49.995Z,21.49
2024-04-11T01:00:53.696Z,21.47
2024-04-11T01:01:56.319Z,21.48
2024-04-11T01:02:58.250Z,21.49
2024-04-11T01:04:01.670Z,21.44
2024-04-11T01:05:05.182Z,21.48
2024-04-11T01:06:07.170Z,21.47
2024-04-11T01:07:11.728Z,21.46
2024-04-11T01:08:13.884Z,21.48
2024-04-11T01:09:20.949Z,21.48
2024-04-11T01:10:23.499Z,21.44
2024-04-11T01:11:25.490Z,21.45
2024-04-11T01:12:27.520Z,21.48
2024-04-11T01:13:30.483Z,21.48
2024-04-11T01:14:32.780Z,21.47
2024-04-11T01:15:38.946Z,21.47
2024-04-11T01:16:40.982Z,21.42
2024-04-11T01:17:45.596Z,21.42
2024-04-11T01:18:48.230Z,21.50
2024-04-11T01:19:50.150Z,21.48
2024-04-11T01:20:53.396Z,21.48
2024-04-11T01:21:56.969Z,21.45
2024-04-11T01:22:58.800Z,21.44
2024-04-11T01:24:01.059Z,21.41
2024-04-11T01:25:03.251Z,21.46
2024-04-11T01:26:07.170Z,21.42
2024-04-11T01:27:10.709Z,21.45
2024-04-11T01:28:12.651Z,21.47
2024-04-11T01:29:15.067Z,21.44
2024-04-11T01:30:17.816Z,21.47
2024-04-11T01:31:20.191Z,21.46
2024-04-11T01:32:22.187Z,21.40
2024-04-11T01:33:24.776Z,21.41
2024-04-11T01:34:26.948Z,21.47
2024-04-11T01:35:32.445Z,21.37
2024-04-11T01:36:34.975Z,21.46
2024-04-11T01:37:37.138Z,21.41
2024-04-11T01:38:39.023Z,21.47
2024-04-11T01:39:41.111Z,21.40
2024-04-11T01:40:49.051Z,21.39
2024-04-11T01:41:51.613Z,21.48
2024-04-11T01:42:53.532Z,21.46
2024-04-11T01:43:56.098Z,21.35
2024-04-11T01:44:59.659Z,21.41
2024-04-11T01:46:01.650Z,21.45
2024-04-11T01:47:04.289Z,21.45
2024-04-11T01:48:06.891Z,21.46
2024-04-11T01:49:08.897Z,21.43
2024-04-11T01:50:10.721Z,21.43
2024-04-11T01:51:13.595Z,21.42
2024-04-11T01:52:15.684Z,21.33
2024-04-11T01:53:17.530Z,21.40
2024-04-11T01:54:19.352Z,21.45
2024-04-11T01:55:21.327Z,21.45
2024-04-11T01:56:25.573Z,21.44
2024-04-11T01:57:30.801Z,21.40
2024-04-11T01:58:32.947Z,21.45
2024-04-11T01:59:35.102Z,21.44
2024-04-11T02:00:37.966Z,21.44
2024-04-11T02:01:40.184Z,21.44
2024-04-11T02:02:50.204Z,21.43
2024-04-11T02:03:55.323Z,21.45
2024-04-11T02:04:57.526Z,21.46
2024-04-11T02:06:05.354Z,21.45
2024-04-11T02:07:07.327Z,21.46
2024-04-11T02:08:09.775Z,21.45
2024-04-11T02:09:13.485Z,21.44
2024-04-11T02:10:16.684Z,21.39
2024-04-11T02:11:18.593Z,21.37
2024-04-11T02:12:20.599Z,21.39
2024-04-11T02:13:22.612Z,21.40
2024-04-11T02:14:24.583Z,21.36
2024-04-11T02:15:26.583Z,21.39
2024-04-11T02:16:38.166Z,21.41
2024-04-11T02:17:40.543Z,21.43
2024-04-11T02:18:42.594Z,21.38
2024-04-11T02:19:46.507Z,21.42
2024-04-11T02:20:49.290Z,21.41
2024-04-11T02:21:52.516Z,21.41
2024-04-11T02:22:55.299Z,21.41
2024-04-11T02:23:57.303Z,21.41
2024-04-11T02:24:59.275Z,21.40
2024-04-11T02:26:01.113Z,21.35
2024-04-11T02:27:04.685Z,21.35
2024-04-11T02:28:07.419Z,21.40
2024-04-11T02:29:09.692Z,21.39
2024-04-11T02:30:12.121Z,21.33
2024-04-11T02:31:14.036Z,21.40
2024-04-11T02:32:15.861Z,21.39
2024-04-11T02:33:17.813Z,21.38
2024-04-11T02:34:19.973Z,21.39
2024-04-11T02:35:22.050Z,21.35
2024-04-11T02:36:24.001Z,21.38
2024-04-11T02:37:25.824Z,21.37
2024-04-11T02:38:27.747Z,21.37
2024-04-11T02:39:29.793Z,21.37
2024-04-11T02:40:31.631Z,21.32
2024-04-11T02:41:33.552Z,21.36
2024-04-11T02:42:38.876Z,21.36
2024-04-11T02:43:41.597Z,21.37
2024-04-11T02:44:43.699Z,21.37
2024-04-11T02:45:49.559Z,21.36
2024-04-11T02:46:51.458Z,21.36
2024-04-11T02:47:53.550Z,21.33
2024-04-11T02:48:56.528Z,21.39
2024-04-11T02:49:58.405Z,21.38
2024-04-11T02:51:00.323Z,21.33
2024-04-11T02:52:03.233Z,21.39
2024-04-11T02:53:05.248Z,21.30
2024-04-11T02:54:07.653Z,21.34
2024-04-11T02:55:09.686Z,21.39
2024-04-11T02:56:12.914Z,21.39
2024-04-11T02:57:14.959Z,21.38
2024-04-11T02:58:17.407Z,21.35
2024-04-11T02:59:19.305Z,21.39
2024-04-11T03:00:21.150Z,21.42
2024-04-11T03:01:23.292Z,21.37
2024-04-11T03:02:25.368Z,21.39
2024-04-11T03:03:27.410Z,21.41
2024-04-11T03:04:30.241Z,21.44
2024-04-11T03:05:32.677Z,21.43
2024-04-11T03:06:34.526Z,21.37
2024-04-11T03:07:36.613Z,21.43
2024-04-11T03:08:41.059Z,21.41
2024-04-11T03:09:43.228Z,21.39
2024-04-11T03:10:45.070Z,21.45
2024-04-11T03:11:47.044Z,21.44
2024-04-11T03:12:49.588Z,21.43
2024-04-11T03:13:59.125Z,21.44
2024-04-11T03:15:01.470Z,21.47
2024-04-11T03:16:04.471Z,21.42
2024-04-11T03:17:06.415Z,21.42
2024-04-11T03:18:08.478Z,21.42
2024-04-11T03:19:10.499Z,21.43
2024-04-11T03:20:12.853Z,21.43
2024-04-11T03:21:14.785Z,21.43
2024-04-11T03:22:16.690Z,21.39
2024-04-11T03:23:18.604Z,21.44
2024-04-11T03:24:20.612Z,21.43
2024-04-11T03:25:22.475Z,21.38
2024-04-11T03:26:24.407Z,21.43
2024-04-11T03:27:26.361Z,21.38
2024-04-11T03:28:28.344Z,21.43
2024-04-11T03:29:30.869Z,21.42
2024-04-11T03:30:32.774Z,21.38
2024-04-11T03:31:35.155Z,21.43
2024-04-11T03:32:38.067Z,21.43
2024-04-11T03:33:41.038Z,21.38
2024-04-11T03:34:43.060Z,21.43
2024-04-11T03:35:57.986Z,21.44
2024-04-11T03:37:00.059Z,21.45
2024-04-11T03:38:01.892Z,21.45
2024-04-11T03:39:12.695Z,21.45
2024-04-11T03:40:14.670Z,21.47
2024-04-11T03:41:18.292Z,21.42
2024-04-11T03:42:20.253Z,21.43
2024-04-11T03:43:23.460Z,21.37
2024-04-11T03:44:25.338Z,21.39
2024-04-11T03:45:28.213Z,21.44
2024-04-11T03:46:30.061Z,21.43
2024-04-11T03:47:33.842Z,21.39
2024-04-11T03:48:36.852Z,21.42
2024-04-11T03:49:39.252Z,21.39
2024-04-11T03:50:41.183Z,21.41
2024-04-11T03:51:46.155Z,21.41
2024-04-11T03:52:48.132Z,21.37
2024-04-11T03:53:58.090Z,21.41
2024-04-11T03:55:00.067Z,21.36
2024-04-11T03:56:04.656Z,21.42
2024-04-11T03:57:08.553Z,21.42
2024-04-11T03:58:11.330Z,21.43
2024-04-11T03:59:13.304Z,21.38
2024-04-11T04:00:15.274Z,21.42
2024-04-11T04:01:17.677Z,21.37
2024-04-11T04:02:19.699Z,21.38
2024-04-11T04:03:21.856Z,21.38
2024-04-11T04:04:24.738Z,21.40
2024-04-11T04:05:27.430Z,21.40
2024-04-11T04:06:30.192Z,21.39
2024-04-11T04:07:33.431Z,21.41
2024-04-11T04:08:37.571Z,21.41
2024-04-11T04:09:39.496Z,21.36
2024-04-11T04:10:41.704Z,21.35
2024-04-11T04:11:43.807Z,21.40
2024-04-11T04:12:45.909Z,21.40
2024-04-11T04:13:48.952Z,21.40
2024-04-11T04:14:50.864Z,21.37
2024-04-11T04:15:55.125Z,21.25
2024-04-11T04:16:57.064Z,21.42
2024-04-11T04:17:59.065Z,21.42
2024-04-11T04:19:00.988Z,21.42
2024-04-11T04:20:05.039Z,21.41
2024-04-11T04:21:09.065Z,21.38
2024-04-11T04:22:14.936Z,21.43
2024-04-11T04:23:17.017Z,21.42
2024-04-11T04:24:19.097Z,21.44
2024-04-11T04:25:21.532Z,21.43
2024-04-11T04:26:27.718Z,21.41
2024-04-11T04:27:29.903Z,21.42
2024-04-11T04:28:34.111Z,21.44
2024-04-11T04:29:39.283Z,21.28
2024-04-11T04:30:46.302Z,21.41
2024-04-11T04:31:50.563Z,21.47
2024-04-11T04:32:53.125Z,21.47
2024-04-11T04:33:57.053Z,21.46
2024-04-11T04:34:58.962Z,21.28
2024-04-11T04:36:01.194Z,21.47
2024-04-11T04:37:03.085Z,21.41
2024-04-11T04:38:05.150Z,21.46
2024-04-11T04:39:08.150Z,21.45
2024-04-11T04:40:12.135Z,21.39
2024-04-11T04:41:14.649Z,21.46
2024-04-11T04:42:16.553Z,21.46
2024-04-11T04:43:18.417Z,21.46
2024-04-11T04:44:23.924Z,21.45
2024-04-11T04:45:25.911Z,21.45
2024-04-11T04:46:33.674Z,21.45
2024-04-11T04:47:36.654Z,21.47
2024-04-11T04:48:39.112Z,21.44
2024-04-11T04:49:43.008Z,21.42
2024-04-11T04:50:46.067Z,21.43
2024-04-11T04:51:48.820Z,21.46
2024-04-11T04:52:52.043Z,21.41
2024-04-11T04:53:54.541Z,21.47
2024-04-11T04:54:56.753Z,21.42
2024-04-11T04:55:58.578Z,21.46
2024-04-11T04:57:00.520Z,21.43
2024-04-11T04:58:02.528Z,21.45
2024-04-11T04:59:04.513Z,21.46
2024-04-11T05:00:14.960Z,21.45
2024-04-11T05:01:17.259Z,21.43
2024-04-11T05:02:19.245Z,21.48
2024-04-11T05:03:21.310Z,21.43
2024-04-11T05:04:23.458Z,21.44
2024-04-11T05:05:26.559Z,21.46
2024-04-11T05:06:30.619Z,21.47
2024-04-11T05:07:32.573Z,21.49
2024-04-11T05:08:35.137Z,21.47
2024-04-11T05:09:37.197Z,21.49
2024-04-11T05:10:39.383Z,21.44
2024-04-11T05:11:42.180Z,21.49
2024-04-11T05:12:45.014Z,21.49
2024-04-11T05:13:49.619Z,21.49
2024-04-11T05:14:54.119Z,21.50
2024-04-11T05:16:08.163Z,21.50
2024-04-11T05:17:10.109Z,21.53
2024-04-11T05:18:12.056Z,21.44
2024-04-11T05:19:17.735Z,21.45
2024-04-11T05:20:26.142Z,21.52
2024-04-11T05:21:28.677Z,21.53
2024-04-11T05:22:30.547Z,21.53
2024-04-11T05:23:35.272Z,21.52
2024-04-11T05:24:37.215Z,21.52
2024-04-11T05:25:40.989Z,21.49
2024-04-11T05:26:42.942Z,21.47
2024-04-11T05:27:45.091Z,21.46
2024-04-11T05:28:47.977Z,21.52
2024-04-11T05:29:49.842Z,21.53
2024-04-11T05:30:51.908Z,21.47
2024-04-11T05:31:57.907Z,21.43
2024-04-11T05:33:01.178Z,21.53
2024-04-11T05:34:10.389Z,21.52
2024-04-11T05:35:13.132Z,21.52
2024-04-11T05:36:19.381Z,21.54
2024-04-11T05:37:21.351Z,21.52
2024-04-11T05:38:23.223Z,21.54
2024-04-11T05:39:25.227Z,21.51
2024-04-11T05:40:29.190Z,21.54
2024-04-11T05:41:31.053Z,21.49
2024-04-11T05:42:33.955Z,21.53
2024-04-11T05:43:45.562Z,21.50
2024-04-11T05:44:47.773Z,21.57
2024-04-11T05:45:49.660Z,21.56
2024-04-11T05:46:51.597Z,21.55
2024-04-11T05:47:53.664Z,21.55
2024-04-11T05:48:56.507Z,21.55
2024-04-11T05:49:58.667Z,21.54
2024-04-11T05:51:00.631Z,21.51
2024-04-11T05:52:03.524Z,21.49
2024-04-11T05:53:07.783Z,21.52
2024-04-11T05:54:11.649Z,21.55
2024-04-11T05:55:14.325Z,21.55
2024-04-11T05:56:16.742Z,21.53
2024-04-11T05:57:19.007Z,21.56
2024-04-11T05:58:20.860Z,21.52
2024-04-11T05:59:23.627Z,21.56
2024-04-11T06:00:30.636Z,21.57
2024-04-11T06:01:36.960Z,21.58
2024-04-11T06:02:41.528Z,21.59
2024-04-11T06:03:48.205Z,21.57
2024-04-11T06:04:50.403Z,21.61
2024-04-11T06:05:53.160Z,21.56
2024-04-11T06:06:55.103Z,21.55
2024-04-11T06:07:58.275Z,21.54
2024-04-11T06:09:02.288Z,21.60
2024-04-11T06:10:06.098Z,21.57
2024-04-11T06:11:08.286Z,21.61
2024-04-11T06:12:12.275Z,21.61
2024-04-11T06:13:14.225Z,21.57
2024-04-11T06:14:16.142Z,21.57
2024-04-11T06:15:21.056Z,21.60
2024-04-11T06:16:23.054Z,21.61
2024-04-11T06:17:24.980Z,21.57
2024-04-11T06:18:30.000Z,21.62
2024-04-11T06:19:32.029Z,21.60
2024-04-11T06:20:33.932Z,21.63
2024-04-11T06:21:38.046Z,21.65
2024-04-11T06:22:41.139Z,21.65
2024-04-11T06:23:42.979Z,21.63
2024-04-11T06:24:44.918Z,21.64
2024-04-11T06:25:47.834Z,21.63
2024-04-11T06:26:51.740Z,21.62
2024-04-11T06:27:53.762Z,21.64
2024-04-11T06:28:57.796Z,21.62
2024-04-11T06:30:00.405Z,21.60
2024-04-11T06:31:02.548Z,21.65
2024-04-11T06:32:14.248Z,21.62
2024-04-11T06:33:19.586Z,21.67
2024-04-11T06:34:22.015Z,21.67
2024-04-11T06:35:26.121Z,21.63
2024-04-11T06:36:28.155Z,21.60
2024-04-11T06:37:29.977Z,21.65
2024-04-11T06:38:32.563Z,21.65
2024-04-11T06:39:37.132Z,21.65
2024-04-11T06:40:39.419Z,21.60
2024-04-11T06:41:41.387Z,21.63
2024-04-11T06:42:51.244Z,21.64
2024-04-11T06:43:55.335Z,21.68
2024-04-11T06:44:59.503Z,21.67
2024-04-11T06:46:01.778Z,21.67
2024-04-11T06:47:04.860Z,21.66
2024-04-11T06:48:08.222Z,21.59
2024-04-11T06:49:11.144Z,21.65
2024-04-11T06:50:13.143Z,21.65
2024-04-11T06:51:17.363Z,21.63
2024-04-11T06:52:19.211Z,21.62
2024-04-11T06:53:21.890Z,21.65
2024-04-11T06:54:27.493Z,21.64
2024-04-11T06:55:31.878Z,21.62
2024-04-11T06:56:33.944Z,21.65
2024-04-11T06:57:42.167Z,21.65
2024-04-11T06:58:45.832Z,21.67
2024-04-11T06:59:51.470Z,21.67
2024-04-11T07:01:01.200Z,21.66
2024-04-11T07:02:08.432Z,21.69
2024-04-11T07:03:22.929Z,21.63
2024-04-11T07:04:25.248Z,21.71
2024-04-11T07:05:27.233Z,21.62
2024-04-11T07:06:31.362Z,21.68
2024-04-11T07:07:36.807Z,21.67
2024-04-11T07:08:39.959Z,21.66
2024-04-11T07:09:44.299Z,21.67
2024-04-11T07:10:47.826Z,21.66
2024-04-11T07:11:50.607Z,21.67
2024-04-11T07:13:01.152Z,21.61
2024-04-11T07:14:11.453Z,21.68
2024-04-11T07:15:13.980Z,21.70
2024-04-11T07:16:18.188Z,21.67
2024-04-11T07:17:20.279Z,21.67
2024-04-11T07:18:23.862Z,21.68
2024-04-11T07:19:25.790Z,21.69
2024-04-11T07:20:32.710Z,21.66
2024-04-11T07:21:36.401Z,21.68
2024-04-11T07:22:45.607Z,21.69
2024-04-11T07:23:55.341Z,21.70
2024-04-11T07:24:57.277Z,21.72
2024-04-11T07:25:59.207Z,21.71
2024-04-11T07:27:02.067Z,21.67
2024-04-11T07:28:08.142Z,21.69
2024-04-11T07:29:11.447Z,21.70
2024-04-11T07:30:13.433Z,21.67
2024-04-11T07:31:18.707Z,21.69
2024-04-11T07:32:22.629Z,21.71
2024-04-11T07:33:24.722Z,21.66
2024-04-11T07:34:29.855Z,21.67
2024-04-11T07:35:34.828Z,21.66
2024-04-11T07:36:41.812Z,21.68
2024-04-11T07:37:44.233Z,21.68
2024-04-11T07:38:46.110Z,21.67
2024-04-11T07:39:48.043Z,21.71
2024-04-11T07:40:55.828Z,21.69
2024-04-11T07:42:20.327Z,21.73
2024-04-11T07:43:26.134Z,21.77
2024-04-11T07:44:28.129Z,21.74
2024-04-11T07:45:32.227Z,21.75
2024-04-11T07:46:43.124Z,21.74
2024-04-11T07:47:57.106Z,21.73
2024-04-11T07:49:01.701Z,21.72
2024-04-11T07:50:03.899Z,21.75
2024-04-11T07:51:11.166Z,21.75
2024-04-11T07:52:13.930Z,21.73
2024-04-11T07:53:20.188Z,21.75
2024-04-11T07:54:34.018Z,21.70
2024-04-11T07:55:47.768Z,21.74
2024-04-11T07:56:49.747Z,21.78
2024-04-11T07:57:53.104Z,21.76
2024-04-11T07:58:57.306Z,21.75
2024-04-11T08:00:01.588Z,21.75
2024-04-11T08:01:03.581Z,21.71
2024-04-11T08:02:05.478Z,21.74
2024-04-11T08:03:08.718Z,21.67
2024-04-11T08:04:13.344Z,21.70
2024-04-11T08:05:16.632Z,21.75
2024-04-11T08:06:21.317Z,21.75
2024-04-11T08:07:25.091Z,21.76
2024-04-11T08:08:27.427Z,21.72
2024-04-11T08:09:42.289Z,21.66
2024-04-11T08:10:49.607Z,21.79
2024-04-11T08:11:52.681Z,21.80
2024-04-11T08:12:55.116Z,21.79
2024-04-11T08:14:00.169Z,21.78
2024-04-11T08:15:04.396Z,21.78
2024-04-11T08:16:09.224Z,21.77
2024-04-11T08:17:15.804Z,21.78
2024-04-11T08:18:19.511Z,21.80
2024-04-11T08:19:21.418Z,21.79
2024-04-11T08:20:23.400Z,21.78
2024-04-11T08:21:26.194Z,21.79
2024-04-11T08:22:29.839Z,21.78
2024-04-11T08:23:31.933Z,21.79
2024-04-11T08:24:34.347Z,21.79
2024-04-11T08:25:36.166Z,21.76
2024-04-11T08:26:39.223Z,21.73
2024-04-11T08:27:41.934Z,21.79
2024-04-11T08:28:44.883Z,21.79
2024-04-11T08:29:47.033Z,21.80
2024-04-11T08:30:49.373Z,21.79
2024-04-11T08:31:52.094Z,21.80
2024-04-11T08:32:54.141Z,21.79
2024-04-11T08:34:00.000Z,21.80
2024-04-11T08:35:02.503Z,21.80
2024-04-11T08:36:06.113Z,21.81
2024-04-11T08:37:07.953Z,21.82
2024-04-11T08:38:13.197Z,21.78
2024-04-11T08:39:16.157Z,21.83
2024-04-11T08:40:19.064Z,21.76
2024-04-11T08:41:22.006Z,21.82
2024-04-11T08:42:24.248Z,21.77
2024-04-11T08:43:28.982Z,21.80
2024-04-11T08:44:31.842Z,21.84
2024-04-11T08:45:36.221Z,21.80
2024-04-11T08:46:38.406Z,21.80
2024-04-11T08:47:40.990Z,21.84
2024-04-11T08:48:43.152Z,21.84
2024-04-11T08:49:48.256Z,21.78
2024-04-11T08:50:54.559Z,21.84
2024-04-11T08:51:58.769Z,21.85
2024-04-11T08:53:01.462Z,21.85
2024-04-11T08:54:07.098Z,21.85
2024-04-11T08:55:12.591Z,21.86
2024-04-11T08:56:18.762Z,21.86
2024-04-11T08:57:20.634Z,21.87
2024-04-11T08:58:24.972Z,21.87
2024-04-11T08:59:27.191Z,21.87
2024-04-11T09:00:30.511Z,21.85
2024-04-11T09:01:32.355Z,21.85
2024-04-11T09:02:34.876Z,21.87
2024-04-11T09:03:37.593Z,21.85
2024-04-11T09:04:39.502Z,21.86
2024-04-11T09:05:41.487Z,21.86
2024-04-11T09:06:43.767Z,21.84
2024-04-11T09:07:48.133Z,21.86
2024-04-11T09:08:51.747Z,21.82
2024-04-11T09:09:53.770Z,21.88
2024-04-11T09:10:56.414Z,21.87
2024-04-11T09:11:58.330Z,21.88
2024-04-11T09:13:00.497Z,21.88
2024-04-11T09:14:02.345Z,21.84
2024-04-11T09:15:09.172Z,21.85
2024-04-11T09:16:11.289Z,21.89
2024-04-11T09:17:16.765Z,21.88
2024-04-11T09:18:25.639Z,21.84
2024-04-11T09:19:27.624Z,21.89
2024-04-11T09:20:34.301Z,21.89
2024-04-11T09:21:47.179Z,21.92
2024-04-11T09:22:55.524Z,21.93
2024-04-11T09:23:59.707Z,21.94
2024-04-11T09:25:05.559Z,21.92
2024-04-11T09:26:07.412Z,21.87
2024-04-11T09:27:09.533Z,21.89
2024-04-11T09:28:12.440Z,21.88
2024-04-11T09:29:15.185Z,21.89
2024-04-11T09:30:18.574Z,21.89
2024-04-11T09:31:22.279Z,21.78
2024-04-11T09:32:26.072Z,21.89
2024-04-11T09:33:30.784Z,21.89
2024-04-11T09:34:39.714Z,21.88
2024-04-11T09:35:48.415Z,21.91
2024-04-11T09:36:51.672Z,21.91
2024-04-11T09:38:01.070Z,21.88
2024-04-11T09:39:13.770Z,21.92
2024-04-11T09:40:27.443Z,21.93
2024-04-11T09:41:32.797Z,21.93
2024-04-11T09:42:37.332Z,21.91
2024-04-11T09:43:42.598Z,21.92
2024-04-11T09:44:51.866Z,21.93
2024-04-11T09:46:05.229Z,21.93
2024-04-11T09:47:11.170Z,21.96
2024-04-11T09:48:14.727Z,21.94
2024-04-11T09:49:18.205Z,21.73
2024-04-11T09:50:26.116Z,21.91
2024-04-11T09:51:32.833Z,21.93
2024-04-11T09:52:43.055Z,21.94
2024-04-11T09:53:46.160Z,21.95
2024-04-11T09:54:52.722Z,21.93
2024-04-11T09:56:01.354Z,21.93
2024-04-11T09:57:03.557Z,21.96
2024-04-11T09:58:08.859Z,21.88
2024-04-11T09:59:11.128Z,21.91
2024-04-11T10:00:32.347Z,21.90
2024-04-11T10:01:38.680Z,21.95
2024-04-11T10:02:41.572Z,21.94
2024-04-11T10:03:46.865Z,21.88
2024-04-11T10:04:48.987Z,21.96
2024-04-11T10:05:52.168Z,21.93
2024-04-11T10:06:54.573Z,21.90
2024-04-11T10:08:02.892Z,21.93
2024-04-11T10:09:19.272Z,21.94
2024-04-11T10:10:22.452Z,21.98
2024-04-11T10:11:25.512Z,21.96
2024-04-11T10:12:29.904Z,21.96
2024-04-11T10:13:41.664Z,21.92
2024-04-11T10:14:46.053Z,21.95
2024-04-11T10:15:50.081Z,21.97
2024-04-11T10:16:57.474Z,21.97
2024-04-11T10:18:12.467Z,21.96
2024-04-11T10:19:23.709Z,21.99
2024-04-11T10:20:25.963Z,22.01
2024-04-11T10:21:37.018Z,21.98
2024-04-11T10:22:48.609Z,22.01
2024-04-11T10:23:50.649Z,22.00
2024-04-11T10:25:07.463Z,21.96
2024-04-11T10:26:16.369Z,21.99
2024-04-11T10:27:24.041Z,21.98
2024-04-11T10:28:47.776Z,21.96
2024-04-11T10:29:51.666Z,22.02
2024-04-11T10:30:54.045Z,21.99
2024-04-11T10:32:00.110Z,21.96
2024-04-11T10:33:06.017Z,21.93
2024-04-11T10:34:13.960Z,21.96
2024-04-11T10:35:20.908Z,21.95
2024-04-11T10:36:23.185Z,21.95
2024-04-11T10:37:26.606Z,21.95
2024-04-11T10:38:29.063Z,21.90
2024-04-11T10:39:37.409Z,21.92
2024-04-11T10:40:43.348Z,21.93
2024-04-11T10:41:47.346Z,21.96
2024-04-11T10:43:12.214Z,21.96
2024-04-11T10:44:15.160Z,22.00
2024-04-11T10:45:19.490Z,21.95
2024-04-11T10:46:25.459Z,21.97
2024-04-11T10:47:27.654Z,21.98
2024-04-11T10:48:32.968Z,21.96
2024-04-11T10:49:44.162Z,21.97
2024-04-11T10:50:46.252Z,21.99
2024-04-11T10:51:52.220Z,21.95
2024-04-11T10:52:58.638Z,21.96
2024-04-11T10:54:10.772Z,21.98
2024-04-11T10:55:29.992Z,21.97
2024-04-11T10:56:32.577Z,22.04
2024-04-11T10:57:38.417Z,21.99
2024-04-11T10:58:42.364Z,21.97
2024-04-11T10:59:52.891Z,21.98
2024-04-11T11:01:04.307Z,22.01
2024-04-11T11:02:10.470Z,21.97
2024-04-11T11:03:15.713Z,22.02
2024-04-11T11:04:21.629Z,22.01
2024-04-11T11:05:25.726Z,22.00
2024-04-11T11:06:31.891Z,22.00
2024-04-11T11:07:37.369Z,22.01
2024-04-11T11:08:44.490Z,21.95
2024-04-11T11:09:50.068Z,22.00
2024-04-11T11:10:51.947Z,21.97
2024-04-11T11:11:55.962Z,21.99
2024-04-11T11:12:59.985Z,21.99
2024-04-11T11:14:02.700Z,21.98
2024-04-11T11:15:05.122Z,21.98
2024-04-11T11:16:09.304Z,22.00
2024-04-11T11:17:19.170Z,21.99
2024-04-11T11:18:21.882Z,22.02
2024-04-11T11:19:24.152Z,22.02
2024-04-11T11:20:26.199Z,21.98
2024-04-11T11:21:34.763Z,22.00
2024-04-11T11:22:41.663Z,21.99
2024-04-11T11:23:47.278Z,22.03
2024-04-11T11:24:49.725Z,22.03
2024-04-11T11:25:52.231Z,22.02
2024-04-11T11:27:02.681Z,22.01
2024-04-11T11:28:04.877Z,22.03
2024-04-11T11:29:13.564Z,22.02
2024-04-11T11:30:18.036Z,22.03
2024-04-11T11:31:23.971Z,22.03
2024-04-11T11:32:27.580Z,21.99
2024-04-11T11:33:30.339Z,22.03
2024-04-11T11:34:44.168Z,21.99
2024-04-11T11:35:46.919Z,21.99
2024-04-11T11:36:51.401Z,22.03
2024-04-11T11:37:55.696Z,22.02
2024-04-11T11:38:57.670Z,22.02
2024-04-11T11:40:19.488Z,22.02
2024-04-11T11:41:21.476Z,22.02
2024-04-11T11:42:33.486Z,22.04
2024-04-11T11:43:45.307Z,22.01
2024-04-11T11:45:00.177Z,22.04
2024-04-11T11:46:20.809Z,21.88
2024-04-11T11:47:35.049Z,22.07
2024-04-11T11:48:37.536Z,22.05
2024-04-11T11:49:40.075Z,22.02
2024-04-11T11:50:42.378Z,22.02
2024-04-11T11:51:45.577Z,22.01
2024-04-11T11:52:55.153Z,21.96
2024-04-11T11:54:01.855Z,22.03
2024-04-11T11:55:05.415Z,21.99
2024-04-11T11:56:09.980Z,21.97
2024-04-11T11:57:19.235Z,22.01
2024-04-11T11:58:25.213Z,22.04
2024-04-11T11:59:32.286Z,21.98
2024-04-11T12:00:35.501Z,22.03
2024-04-11T12:01:44.588Z,22.01
2024-04-11T12:02:57.624Z,22.02
2024-04-11T12:04:01.616Z,22.01
2024-04-11T12:05:08.674Z,22.04
2024-04-11T12:06:13.619Z,22.05
2024-04-11T12:07:15.569Z,22.03
2024-04-11T12:08:18.176Z,21.88
2024-04-11T12:09:32.941Z,22.01
2024-04-11T12:10:54.431Z,22.05
2024-04-11T12:12:15.037Z,22.08
2024-04-11T12:13:23.162Z,22.10
2024-04-11T12:14:30.459Z,22.05
2024-04-11T12:15:34.645Z,22.01
2024-04-11T12:16:43.058Z,22.03
2024-04-11T12:17:45.155Z,22.03
2024-04-11T12:18:49.946Z,22.02
2024-04-11T12:20:06.545Z,22.00
2024-04-11T12:21:15.203Z,22.05
2024-04-11T12:22:20.087Z,22.04
2024-04-11T12:23:23.425Z,22.00
2024-04-11T12:24:25.348Z,22.03
2024-04-11T12:25:27.172Z,21.99
2024-04-11T12:26:31.374Z,22.00
2024-04-11T12:27:33.969Z,21.98
2024-04-11T12:28:35.932Z,21.96
2024-04-11T12:29:41.724Z,21.94
2024-04-11T12:30:48.613Z,22.01
2024-04-11T12:31:55.531Z,21.99
2024-04-11T12:32:58.392Z,22.01
2024-04-11T12:34:01.374Z,22.01
2024-04-11T12:35:03.524Z,21.95
2024-04-11T12:36:28.383Z,22.00
2024-04-11T12:37:35.545Z,22.06
2024-04-11T12:38:41.268Z,22.06
2024-04-11T12:39:55.941Z,22.03
2024-04-11T12:41:00.068Z,21.92
2024-04-11T12:42:02.408Z,22.03
2024-04-11T12:43:04.469Z,22.02
2024-04-11T12:44:13.124Z,22.01
2024-04-11T12:45:19.592Z,21.97
2024-04-11T12:46:24.101Z,22.02
2024-04-11T12:47:43.898Z,22.01
2024-04-11T12:48:47.638Z,22.05
2024-04-11T12:49:49.951Z,22.03
2024-04-11T12:50:54.022Z,21.99
2024-04-11T12:51:57.780Z,22.00
2024-04-11T12:52:59.772Z,22.00
2024-04-11T12:54:04.748Z,21.99
2024-04-11T12:55:07.849Z,21.99
2024-04-11T12:56:13.121Z,21.98
2024-04-11T12:57:18.654Z,22.00
2024-04-11T12:58:25.215Z,21.95
2024-04-11T12:59:31.575Z,22.01
2024-04-11T13:00:37.873Z,21.98
2024-04-11T13:01:41.244Z,22.01
2024-04-11T13:02:43.210Z,22.00
2024-04-11T13:03:48.000Z,21.97
2024-04-11T13:04:55.351Z,22.01
2024-04-11T13:05:57.297Z,22.03
2024-04-11T13:07:12.211Z,22.02
2024-04-11T13:08:25.262Z,22.06
2024-04-11T13:09:35.225Z,22.10
2024-04-11T13:10:37.220Z,22.09
2024-04-11T13:11:39.208Z,22.07
2024-04-11T13:12:53.449Z,22.06
2024-04-11T13:14:02.555Z,22.09
2024-04-11T13:15:11.101Z,22.10
2024-04-11T13:16:13.858Z,22.11
2024-04-11T13:17:15.891Z,22.11
2024-04-11T13:18:17.925Z,22.10
2024-04-11T13:19:22.760Z,22.09
2024-04-11T13:20:30.810Z,22.04
2024-04-11T13:21:40.070Z,22.10
2024-04-11T13:22:43.682Z,22.09
2024-04-11T13:23:45.727Z,22.12
2024-04-11T13:24:49.661Z,22.12
2024-04-11T13:25:55.196Z,22.11
2024-04-11T13:26:58.414Z,22.13
2024-04-11T13:28:00.262Z,22.09
2024-04-11T13:29:02.366Z,22.09
2024-04-11T13:30:14.006Z,22.13
2024-04-11T13:31:21.513Z,22.16
2024-04-11T13:32:31.502Z,22.17
2024-04-11T13:33:33.691Z,22.19
2024-04-11T13:34:41.638Z,22.18
2024-04-11T13:35:51.376Z,22.20
2024-04-11T13:37:04.078Z,22.15
2024-04-11T13:38:18.527Z,22.23
2024-04-11T13:39:21.263Z,22.24
2024-04-11T13:40:29.008Z,22.22
2024-04-11T13:41:49.716Z,22.21
2024-04-11T13:42:53.737Z,22.25
2024-04-11T13:43:55.596Z,22.24
2024-04-11T13:44:58.377Z,22.22
2024-04-11T13:46:08.841Z,22.22
2024-04-11T13:47:11.291Z,22.24
2024-04-11T13:48:13.394Z,22.23
2024-04-11T13:49:32.257Z,22.22
2024-04-11T13:50:55.665Z,22.27